Time;durP1;ratioP1;P1;durP2;ratioP2;P2;SDS_P1;SDS_P2;PMS_P1;PMS_P2;Temp;Humidity;BMP_temperature;BMP_pressure;BME280_temperature;BME280_humidity;BME280_pressure;Samples;Min_cycle;Max_cycle;Signal;HPM_P1;HPM_P2
2022/05/11 00:01:52;;;;;;;17.13;8.27;;;;;;;;;;5053768;28;20045;-64
2022/05/11 00:04:18;;;;;;;11.05;7.97;;;;;;;;;;5054280;28;20025;-64
2022/05/11 00:06:44;;;;;;;13.25;8.35;;;;;;;;;;5036198;28;20491;-64
2022/05/11 00:09:12;;;;;;;14.38;8.32;;;;;;;;;;5054180;28;20025;-64
2022/05/11 00:11:38;;;;;;;13.68;8.77;;;;;;;;;;5053861;28;20025;-65
2022/05/11 00:14:05;;;;;;;16.98;7.95;;;;;;;;;;5053790;28;20103;-61
2022/05/11 00:16:32;;;;;;;12.15;9.05;;;;;;;;;;5053911;28;20107;-56
2022/05/11 00:18:58;;;;;;;13.60;7.53;;;;;;;;;;5054022;28;20095;-60
2022/05/11 00:21:23;;;;;;;11.48;7.65;;;;;;;;;;5036114;28;20457;-58
2022/05/11 00:23:51;;;;;;;10.45;7.32;;;;;;;;;;5036163;28;20043;-60
2022/05/11 00:26:17;;;;;;;11.00;6.80;;;;;;;;;;5053561;28;20029;-65
2022/05/11 00:28:42;;;;;;;11.52;7.40;;;;;;;;;;5053484;28;20032;-62
2022/05/11 00:31:09;;;;;;;8.52;6.80;;;;;;;;;;5053788;28;20032;-53
2022/05/11 00:33:35;;;;;;;9.90;6.75;;;;;;;;;;5053699;28;20234;-64
2022/05/11 00:36:01;;;;;;;8.98;6.95;;;;;;;;;;5035465;28;20040;-59
2022/05/11 00:38:28;;;;;;;8.93;6.75;;;;;;;;;;5053641;28;20362;-60
2022/05/11 00:40:58;;;;;;;8.07;6.15;;;;;;;;;;5053187;28;20108;-52
2022/05/11 00:43:31;;;;;;;9.23;6.78;;;;;;;;;;5053543;28;20025;-62
2022/05/11 00:46:18;;;;;;;13.70;6.72;;;;;;;;;;5053177;28;20057;-65
2022/05/11 00:51:38;;;;;;;8.98;6.47;;;;;;;;;;5053485;28;20469;-56
2022/05/11 00:54:05;;;;;;;13.80;6.95;;;;;;;;;;5052781;28;20070;-60
2022/05/11 00:56:33;;;;;;;9.90;6.80;;;;;;;;;;5053207;28;20032;-64
2022/05/11 00:59:06;;;;;;;9.27;6.75;;;;;;;;;;5053219;28;20035;-51
2022/05/11 01:01:31;;;;;;;7.82;6.15;;;;;;;;;;5052728;28;20511;-52
2022/05/11 01:04:09;;;;;;;10.10;7.05;;;;;;;;;;5052921;28;20029;-55
2022/05/11 01:06:35;;;;;;;9.90;6.20;;;;;;;;;;5052874;28;20057;-65
2022/05/11 01:09:02;;;;;;;10.30;6.35;;;;;;;;;;5053086;28;20036;-50
2022/05/11 01:11:29;;;;;;;10.20;7.15;;;;;;;;;;5052800;28;20017;-58
2022/05/11 01:13:54;;;;;;;8.73;7.28;;;;;;;;;;5053225;28;20036;-56
2022/05/11 01:16:20;;;;;;;9.10;6.40;;;;;;;;;;5052675;28;20037;-59
2022/05/11 01:18:46;;;;;;;10.27;7.10;;;;;;;;;;5052657;28;20067;-65
2022/05/11 01:21:12;;;;;;;10.75;6.68;;;;;;;;;;5034836;28;20037;-58
2022/05/11 01:23:45;;;;;;;9.55;6.57;;;;;;;;;;5034983;28;20404;-64
2022/05/11 01:26:15;;;;;;;7.28;6.50;;;;;;;;;;5052815;28;20100;-65
2022/05/11 01:28:43;;;;;;;12.38;7.45;;;;;;;;;;5053011;28;20025;-63
2022/05/11 01:31:11;;;;;;;9.40;6.85;;;;;;;;;;5052741;28;20031;-61
2022/05/11 01:33:39;;;;;;;9.18;6.32;;;;;;;;;;5052435;28;20025;-59
2022/05/11 01:36:28;;;;;;;11.23;6.07;;;;;;;;;;5052381;28;20035;-65
2022/05/11 01:39:00;;;;;;;8.65;6.15;;;;;;;;;;5052316;28;20480;-58
2022/05/11 01:41:34;;;;;;;11.57;6.38;;;;;;;;;;5052311;28;20115;-65
2022/05/11 01:44:04;;;;;;;7.63;6.25;;;;;;;;;;5052637;28;20373;-66
2022/05/11 01:46:30;;;;;;;12.63;6.28;;;;;;;;;;5052318;28;20473;-65
2022/05/11 01:48:56;;;;;;;7.82;5.93;;;;;;;;;;5052339;28;20108;-58
2022/05/11 01:51:21;;;;;;;9.40;5.70;;;;;;;;;;5052567;28;20516;-64
2022/05/11 01:53:48;;;;;;;11.50;6.03;;;;;;;;;;5052275;28;20479;-51
2022/05/11 01:56:15;;;;;;;11.93;5.88;;;;;;;;;;5052046;28;20025;-65
2022/05/11 01:58:41;;;;;;;9.80;5.93;;;;;;;;;;5052162;28;20488;-63
2022/05/11 02:01:06;;;;;;;7.60;6.10;;;;;;;;;;5051888;28;20065;-61
2022/05/11 02:03:32;;;;;;;8.75;6.15;;;;;;;;;;5034455;28;20028;-64
2022/05/11 02:08:43;;;;;;;8.30;5.70;;;;;;;;;;5056526;28;20499;-58
2022/05/11 02:11:10;;;;;;;8.55;6.30;;;;;;;;;;5056387;28;20427;-63
2022/05/11 02:13:36;;;;;;;9.85;6.80;;;;;;;;;;5056430;28;20083;-66
2022/05/11 02:16:02;;;;;;;11.32;7.95;;;;;;;;;;5056257;28;20033;-67
2022/05/11 02:18:28;;;;;;;12.05;7.75;;;;;;;;;;5056048;28;20032;-66
2022/05/11 02:20:53;;;;;;;9.27;7.00;;;;;;;;;;5055968;28;20078;-65
2022/05/11 02:23:20;;;;;;;9.30;6.72;;;;;;;;;;5055945;28;20033;-65
2022/05/11 02:25:47;;;;;;;14.93;6.05;;;;;;;;;;5056127;28;20104;-65
2022/05/11 02:28:14;;;;;;;7.85;6.20;;;;;;;;;;5056050;28;20025;-65
2022/05/11 02:30:41;;;;;;;7.45;5.70;;;;;;;;;;5055717;28;20036;-66
2022/05/11 02:33:07;;;;;;;8.25;5.80;;;;;;;;;;5056005;28;20053;-66
2022/05/11 02:35:33;;;;;;;8.60;6.15;;;;;;;;;;5055611;28;20036;-65
2022/05/11 02:38:01;;;;;;;7.57;6.10;;;;;;;;;;5055656;28;20025;-66
2022/05/11 02:40:29;;;;;;;10.10;6.20;;;;;;;;;;5055826;28;20032;-64
2022/05/11 02:42:55;;;;;;;7.82;6.13;;;;;;;;;;5055805;28;20068;-65
2022/05/11 02:45:22;;;;;;;8.82;6.65;;;;;;;;;;5055775;28;20545;-63
2022/05/11 02:47:49;;;;;;;12.13;6.95;;;;;;;;;;5055752;28;20404;-64
2022/05/11 02:50:20;;;;;;;8.43;6.00;;;;;;;;;;5055414;28;20025;-63
2022/05/11 02:52:46;;;;;;;9.63;5.95;;;;;;;;;;5055351;28;20510;-64
2022/05/11 02:55:12;;;;;;;11.38;6.53;;;;;;;;;;5055282;28;20029;-64
2022/05/11 02:57:37;;;;;;;8.82;6.10;;;;;;;;;;5055295;28;20027;-60
2022/05/11 03:00:05;;;;;;;7.38;5.38;;;;;;;;;;5055533;28;20108;-65
2022/05/11 03:02:31;;;;;;;8.95;6.40;;;;;;;;;;5054961;28;20477;-66
2022/05/11 03:04:56;;;;;;;10.45;6.30;;;;;;;;;;5055134;28;20139;-66
2022/05/11 03:07:21;;;;;;;16.92;6.35;;;;;;;;;;5055189;28;20108;-67
2022/05/11 03:09:47;;;;;;;7.30;6.13;;;;;;;;;;5054996;28;20104;-64
2022/05/11 03:12:12;;;;;;;9.85;5.50;;;;;;;;;;5037175;28;20091;-65
2022/05/11 03:14:39;;;;;;;7.47;5.43;;;;;;;;;;5054916;28;20052;-63
2022/05/11 03:17:05;;;;;;;8.25;5.60;;;;;;;;;;5054763;28;20025;-64
2022/05/11 03:19:30;;;;;;;7.88;5.47;;;;;;;;;;5054871;28;20098;-65
2022/05/11 03:21:57;;;;;;;7.25;5.18;;;;;;;;;;5054850;28;20365;-64
2022/05/11 03:24:23;;;;;;;8.75;5.13;;;;;;;;;;5055054;28;20040;-65
2022/05/11 03:26:48;;;;;;;8.45;5.95;;;;;;;;;;5054747;28;20059;-61
2022/05/11 03:29:14;;;;;;;8.90;5.40;;;;;;;;;;5054638;28;20060;-66
2022/05/11 03:31:39;;;;;;;9.32;5.47;;;;;;;;;;5055216;28;20032;-64
2022/05/11 03:36:51;;;;;;;8.65;4.93;;;;;;;;;;5054613;28;20036;-64
2022/05/11 03:39:18;;;;;;;8.32;5.68;;;;;;;;;;5054771;28;20025;-64
2022/05/11 03:41:47;;;;;;;6.97;5.38;;;;;;;;;;5054426;28;20059;-64
2022/05/11 03:44:13;;;;;;;7.18;5.43;;;;;;;;;;5054378;28;20029;-64
2022/05/11 03:46:39;;;;;;;7.10;5.45;;;;;;;;;;5054378;28;20036;-63
2022/05/11 03:49:04;;;;;;;9.70;5.95;;;;;;;;;;5054748;28;20028;-66
2022/05/11 03:51:30;;;;;;;16.58;7.45;;;;;;;;;;5054340;28;20230;-61
2022/05/11 03:53:55;;;;;;;13.88;7.05;;;;;;;;;;5054200;28;20064;-67
2022/05/11 03:56:21;;;;;;;9.10;5.15;;;;;;;;;;5054426;28;20051;-64
2022/05/11 03:58:46;;;;;;;7.60;5.53;;;;;;;;;;5054137;28;20484;-66
2022/05/11 04:01:12;;;;;;;7.40;5.20;;;;;;;;;;5054437;28;20032;-67
2022/05/11 04:03:39;;;;;;;6.22;5.60;;;;;;;;;;5053862;28;20047;-66
2022/05/11 04:06:04;;;;;;;6.70;5.40;;;;;;;;;;5054296;28;20032;-61
2022/05/11 04:08:30;;;;;;;12.32;6.28;;;;;;;;;;5054000;28;20028;-66
2022/05/11 04:10:55;;;;;;;11.25;6.40;;;;;;;;;;5054459;28;20025;-62
2022/05/11 04:13:20;;;;;;;8.40;5.05;;;;;;;;;;5053933;28;20389;-57
2022/05/11 04:15:53;;;;;;;6.95;5.35;;;;;;;;;;5053735;28;20033;-59
2022/05/11 04:18:20;;;;;;;16.52;5.07;;;;;;;;;;5053771;28;20469;-65
2022/05/11 04:20:45;;;;;;;10.38;5.05;;;;;;;;;;5054027;28;20021;-67
2022/05/11 04:23:11;;;;;;;6.10;5.07;;;;;;;;;;5053973;28;20457;-67
2022/05/11 04:25:37;;;;;;;6.63;5.25;;;;;;;;;;5053595;28;20441;-64
2022/05/11 04:28:07;;;;;;;6.38;5.38;;;;;;;;;;5052752;28;20029;-68
2022/05/11 04:30:33;;;;;;;6.45;4.88;;;;;;;;;;5053599;28;20029;-63
2022/05/11 04:32:59;;;;;;;6.50;4.50;;;;;;;;;;5053729;28;20058;-62
2022/05/11 04:35:30;;;;;;;5.45;4.70;;;;;;;;;;5053578;28;20426;-68
2022/05/11 04:37:57;;;;;;;7.95;4.63;;;;;;;;;;5053414;28;20029;-66
2022/05/11 04:40:23;;;;;;;5.55;4.45;;;;;;;;;;5053659;28;20132;-55
2022/05/11 04:42:49;;;;;;;5.50;4.90;;;;;;;;;;5053289;28;20489;-69
2022/05/11 04:45:16;;;;;;;7.10;4.75;;;;;;;;;;5053784;28;20052;-51
2022/05/11 04:47:41;;;;;;;7.32;4.80;;;;;;;;;;5053525;28;20021;-60
2022/05/11 04:50:08;;;;;;;6.25;5.07;;;;;;;;;;5053468;28;20021;-51
2022/05/11 04:52:34;;;;;;;5.75;4.55;;;;;;;;;;5053136;28;20415;-66
2022/05/11 04:55:00;;;;;;;5.25;4.75;;;;;;;;;;5053311;28;20075;-70
2022/05/11 04:57:25;;;;;;;5.00;4.47;;;;;;;;;;5052996;28;20043;-66
2022/05/11 04:59:51;;;;;;;6.65;4.85;;;;;;;;;;5053313;28;20051;-70
2022/05/11 05:02:22;;;;;;;5.30;4.75;;;;;;;;;;5052771;28;20489;-69
2022/05/11 05:04:50;;;;;;;10.65;4.70;;;;;;;;;;5053136;28;20025;-69
2022/05/11 05:07:16;;;;;;;6.60;4.35;;;;;;;;;;5052365;28;20032;-68
2022/05/11 05:09:42;;;;;;;5.63;4.38;;;;;;;;;;5052224;28;20036;-68
2022/05/11 05:12:09;;;;;;;6.88;4.82;;;;;;;;;;5052751;28;20028;-68
2022/05/11 05:14:34;;;;;;;7.32;4.70;;;;;;;;;;5052509;28;20090;-58
2022/05/11 05:17:01;;;;;;;9.13;4.85;;;;;;;;;;5052414;28;20028;-64
2022/05/11 05:19:27;;;;;;;6.82;4.70;;;;;;;;;;5034763;28;20092;-68
2022/05/11 05:21:53;;;;;;;6.25;4.88;;;;;;;;;;5052714;28;20037;-67
2022/05/11 05:24:18;;;;;;;11.85;4.80;;;;;;;;;;5034478;28;20035;-66
2022/05/11 05:26:43;;;;;;;6.10;4.95;;;;;;;;;;5052827;28;20033;-62
2022/05/11 05:31:53;;;;;;;5.00;4.50;;;;;;;;;;5052854;28;20117;-57
2022/05/11 05:34:18;;;;;;;6.40;4.80;;;;;;;;;;5052758;28;20060;-54
2022/05/11 05:36:43;;;;;;;6.88;4.75;;;;;;;;;;5052542;28;20029;-63
2022/05/11 05:39:09;;;;;;;6.40;4.53;;;;;;;;;;5044518;28;20029;-68
2022/05/11 05:41:35;;;;;;;5.43;4.50;;;;;;;;;;5051265;28;20029;-64
2022/05/11 05:44:00;;;;;;;6.03;4.72;;;;;;;;;;5051073;28;20476;-65
2022/05/11 05:46:26;;;;;;;5.30;4.75;;;;;;;;;;5050101;28;20029;-61
2022/05/11 05:48:52;;;;;;;8.82;4.97;;;;;;;;;;5050385;28;20040;-63
2022/05/11 05:51:20;;;;;;;9.48;4.90;;;;;;;;;;5050984;28;20059;-64
2022/05/11 05:53:46;;;;;;;7.82;5.38;;;;;;;;;;5050579;28;20419;-61
2022/05/11 05:56:13;;;;;;;8.02;5.20;;;;;;;;;;5050794;28;20037;-65
2022/05/11 05:58:38;;;;;;;5.35;4.65;;;;;;;;;;5050757;28;20071;-64
2022/05/11 06:01:04;;;;;;;5.35;4.28;;;;;;;;;;5050566;28;20163;-57
2022/05/11 06:03:31;;;;;;;5.22;4.50;;;;;;;;;;5049154;28;20390;-63
2022/05/11 06:05:57;;;;;;;5.35;4.85;;;;;;;;;;5049469;28;20029;-55
2022/05/11 06:08:23;;;;;;;10.05;4.78;;;;;;;;;;5048803;28;20515;-63
2022/05/11 06:10:51;;;;;;;5.75;4.85;;;;;;;;;;5049895;28;20036;-61
2022/05/11 06:13:20;;;;;;;6.63;4.43;;;;;;;;;;5050327;28;20132;-61
2022/05/11 06:15:45;;;;;;;6.83;4.77;;;;;;;;;;5049895;28;20116;-61
2022/05/11 06:18:12;;;;;;;5.13;4.20;;;;;;;;;;5049528;28;20113;-57
2022/05/11 06:20:38;;;;;;;7.78;4.30;;;;;;;;;;5049938;28;20029;-61
2022/05/11 06:23:05;;;;;;;6.60;5.15;;;;;;;;;;5050004;28;20025;-62
2022/05/11 06:25:31;;;;;;;21.50;9.38;;;;;;;;;;5050350;28;20029;-62
2022/05/11 06:28:00;;;;;;;13.35;8.65;;;;;;;;;;5050025;28;20029;-60
2022/05/11 06:30:27;;;;;;;4.47;4.07;;;;;;;;;;5031660;28;20381;-56
2022/05/11 06:32:53;;;;;;;5.40;4.07;;;;;;;;;;5050194;28;20035;-60
2022/05/11 06:35:19;;;;;;;8.05;3.92;;;;;;;;;;5050305;28;20025;-57
2022/05/11 06:37:44;;;;;;;6.72;4.20;;;;;;;;;;5050179;28;20036;-58
2022/05/11 06:40:12;;;;;;;8.93;4.10;;;;;;;;;;5050549;28;20025;-61
2022/05/11 06:42:37;;;;;;;7.85;4.18;;;;;;;;;;5050147;28;20376;-56
2022/05/11 06:45:05;;;;;;;7.25;4.25;;;;;;;;;;5049977;28;20037;-58
2022/05/11 06:47:31;;;;;;;5.63;3.85;;;;;;;;;;5049729;28;20052;-59
2022/05/11 06:49:56;;;;;;;6.22;3.90;;;;;;;;;;5050127;28;20060;-60
2022/05/11 06:52:22;;;;;;;5.25;3.80;;;;;;;;;;5052660;28;20521;-56
2022/05/11 07:00:15;;;;;;;4.00;3.20;;;;;;;;;;5053800;28;20388;-64
2022/05/11 07:02:41;;;;;;;4.22;3.17;;;;;;;;;;5053468;28;20041;-59
2022/05/11 07:05:07;;;;;;;5.80;3.63;;;;;;;;;;5053836;28;20025;-61
2022/05/11 07:07:33;;;;;;;5.60;4.00;;;;;;;;;;5053559;28;20116;-62
2022/05/11 07:09:58;;;;;;;3.85;2.80;;;;;;;;;;5053804;28;20119;-58
2022/05/11 07:13:06;;;;;;;5.75;3.60;;;;;;;;;;5053515;28;20025;-60
2022/05/11 07:15:14;;;;;;;;;;;;;;;;;;5047799;28;20400;-58
2022/05/11 07:17:42;;;;;;;4.95;3.10;;;;;;;;;;5053696;28;19917;-52
2022/05/11 07:20:10;;;;;;;;;;;;;;;;;;5054034;28;20041;-57
2022/05/11 07:22:35;;;;;;;5.03;3.28;;;;;;;;;;5053233;28;19923;-57
2022/05/11 07:25:01;;;;;;;5.50;3.42;;;;;;;;;;5053372;28;20025;-58
2022/05/11 07:27:27;;;;;;;6.95;3.35;;;;;;;;;;5053451;28;20365;-51
2022/05/11 07:29:53;;;;;;;7.57;3.28;;;;;;;;;;5053346;28;20029;-55
2022/05/11 07:32:20;;;;;;;5.97;2.83;;;;;;;;;;5053073;28;20379;-61
2022/05/11 07:34:45;;;;;;;4.25;2.70;;;;;;;;;;5052889;28;20044;-57
2022/05/11 07:37:11;;;;;;;3.10;2.80;;;;;;;;;;5053314;28;20027;-60
2022/05/11 07:39:37;;;;;;;4.35;2.72;;;;;;;;;;5053153;28;20112;-58
2022/05/11 07:42:03;;;;;;;4.80;2.97;;;;;;;;;;5052900;28;20373;-55
2022/05/11 07:44:28;;;;;;;4.72;3.20;;;;;;;;;;5035183;28;20083;-53
2022/05/11 07:46:53;;;;;;;5.95;3.70;;;;;;;;;;5052737;28;20047;-58
2022/05/11 07:49:19;;;;;;;6.85;3.25;;;;;;;;;;5052830;28;20033;-56
2022/05/11 07:51:46;;;;;;;3.95;3.00;;;;;;;;;;5052700;28;20104;-57
2022/05/11 07:54:12;;;;;;;8.82;3.50;;;;;;;;;;5052908;28;20033;-55
2022/05/11 08:02:06;;;;;;;5.85;2.83;;;;;;;;;;5052122;28;20250;-53
2022/05/11 08:04:32;;;;;;;6.90;2.78;;;;;;;;;;5051592;28;20108;-53
2022/05/11 08:06:58;;;;;;;3.65;2.97;;;;;;;;;;5052488;28;20055;-59
2022/05/11 08:09:24;;;;;;;3.85;2.53;;;;;;;;;;5052251;28;20119;-56
2022/05/11 08:11:51;;;;;;;3.38;2.60;;;;;;;;;;5052645;28;20443;-58
2022/05/11 08:14:17;;;;;;;3.55;2.00;;;;;;;;;;5052507;28;20384;-56
2022/05/11 08:16:43;;;;;;;5.97;2.38;;;;;;;;;;5052140;28;20033;-56
2022/05/11 08:19:10;;;;;;;8.45;2.60;;;;;;;;;;5052194;28;20021;-59
2022/05/11 08:21:35;;;;;;;2.97;2.50;;;;;;;;;;5052132;28;20388;-56
2022/05/11 08:24:01;;;;;;;2.92;2.30;;;;;;;;;;5052300;28;20047;-57
2022/05/11 08:26:26;;;;;;;4.65;2.13;;;;;;;;;;5052307;28;20473;-56
2022/05/11 08:28:52;;;;;;;2.53;2.20;;;;;;;;;;5052254;28;20029;-56
2022/05/11 08:34:02;;;;;;;3.45;2.28;;;;;;;;;;5051962;28;20397;-62
2022/05/11 08:36:28;;;;;;;5.78;2.38;;;;;;;;;;5052094;28;20029;-56
2022/05/11 08:38:56;;;;;;;4.78;2.38;;;;;;;;;;5051878;28;20025;-58
2022/05/11 08:41:39;;;;;;;3.80;2.53;;;;;;;;;;5052099;28;20107;-56
2022/05/11 08:44:34;;;;;;;4.18;2.13;;;;;;;;;;5051760;28;20375;-61
2022/05/11 08:47:06;;;;;;;2.47;2.05;;;;;;;;;;5049678;28;20044;-57
2022/05/11 08:50:06;;;;;;;7.25;2.60;;;;;;;;;;5052000;28;20036;-56
2022/05/11 08:52:43;;;;;;;2.78;2.00;;;;;;;;;;5051824;28;20029;-57
2022/05/11 08:55:30;;;;;;;2.08;1.83;;;;;;;;;;5051734;28;20098;-56
2022/05/11 08:57:57;;;;;;;5.05;2.40;;;;;;;;;;5051320;28;20064;-60
2022/05/11 09:00:23;;;;;;;4.40;2.38;;;;;;;;;;5051736;28;20100;-58
2022/05/11 09:02:56;;;;;;;4.70;2.47;;;;;;;;;;5051045;28;20045;-66
2022/05/11 09:05:28;;;;;;;5.70;2.10;;;;;;;;;;5051258;28;20029;-62
2022/05/11 09:07:55;;;;;;;3.97;1.80;;;;;;;;;;5050993;28;20036;-65
2022/05/11 09:10:23;;;;;;;4.03;2.67;;;;;;;;;;5051309;28;20052;-52
2022/05/11 09:13:01;;;;;;;5.45;2.20;;;;;;;;;;5051110;28;20526;-54
2022/05/11 09:15:47;;;;;;;3.92;2.17;;;;;;;;;;5051105;28;20051;-60
2022/05/11 09:18:13;;;;;;;2.28;2.13;;;;;;;;;;5051411;28;20112;-50
2022/05/11 09:20:45;;;;;;;2.97;1.95;;;;;;;;;;5051016;28;20429;-60
2022/05/11 09:23:10;;;;;;;2.95;2.10;;;;;;;;;;5051272;28;20079;-49
2022/05/11 09:25:37;;;;;;;4.78;2.10;;;;;;;;;;5050827;28;20650;-57
2022/05/11 09:28:26;;;;;;;7.68;4.93;;;;;;;;;;5050948;28;20565;-56
2022/05/11 09:31:13;;;;;;;7.68;2.75;;;;;;;;;;5050682;28;20032;-57
2022/05/11 09:34:01;;;;;;;4.60;2.70;;;;;;;;;;5050841;28;20025;-57
2022/05/11 09:36:38;;;;;;;4.10;2.40;;;;;;;;;;5051222;28;20033;-58
2022/05/11 09:39:13;;;;;;;3.28;2.42;;;;;;;;;;5050188;28;20029;-55
2022/05/11 09:41:40;;;;;;;4.55;2.65;;;;;;;;;;5050363;28;20029;-51
2022/05/11 09:44:17;;;;;;;5.28;3.55;;;;;;;;;;5051065;28;20025;-47
2022/05/11 09:46:43;;;;;;;3.45;3.10;;;;;;;;;;5050952;28;20066;-60
2022/05/11 09:49:13;;;;;;;2.42;1.98;;;;;;;;;;5050952;28;20136;-50
2022/05/11 09:51:38;;;;;;;2.33;2.13;;;;;;;;;;5050603;28;20627;-58
2022/05/11 09:54:20;;;;;;;4.27;2.13;;;;;;;;;;5050751;28;20021;-61
2022/05/11 09:56:51;;;;;;;3.20;2.17;;;;;;;;;;5050001;28;20258;-59
2022/05/11 09:59:27;;;;;;;2.30;2.10;;;;;;;;;;5049306;28;20032;-63
2022/05/11 10:02:13;;;;;;;5.10;2.25;;;;;;;;;;5050075;28;20072;-64
2022/05/11 10:04:43;;;;;;;2.40;2.00;;;;;;;;;;5050557;28;20070;-60
2022/05/11 10:07:12;;;;;;;2.25;2.08;;;;;;;;;;5050664;28;20041;-55
2022/05/11 10:09:52;;;;;;;2.08;1.80;;;;;;;;;;5050468;28;20032;-53
2022/05/11 10:12:24;;;;;;;2.20;2.00;;;;;;;;;;5049745;28;20563;-62
2022/05/11 10:23:26;;;;;;;3.53;1.90;;;;;;;;;;5050441;28;20024;-54
2022/05/11 10:26:13;;;;;;;4.13;2.00;;;;;;;;;;5050412;28;20376;-60
2022/05/11 10:28:50;;;;;;;2.20;2.00;;;;;;;;;;5054342;28;20408;-56
2022/05/11 10:31:29;;;;;;;2.90;2.33;;;;;;;;;;5054349;28;20376;-62
2022/05/11 10:34:10;;;;;;;2.55;2.08;;;;;;;;;;5054188;28;20025;-67
2022/05/11 10:36:57;;;;;;;4.15;2.00;;;;;;;;;;5054504;28;20025;-67
2022/05/11 10:39:41;;;;;;;2.25;2.03;;;;;;;;;;5054251;28;20033;-69
2022/05/11 10:42:16;;;;;;;3.10;2.30;;;;;;;;;;5054078;28;20052;-68
2022/05/11 10:45:00;;;;;;;3.20;2.03;;;;;;;;;;5053756;28;20020;-66
2022/05/11 10:47:57;;;;;;;2.72;2.20;;;;;;;;;;5054291;28;20039;-68
2022/05/11 10:50:29;;;;;;;4.70;2.13;;;;;;;;;;5053917;28;20036;-68
2022/05/11 10:53:09;;;;;;;2.85;2.38;;;;;;;;;;5053274;28;20033;-69
2022/05/11 10:55:59;;;;;;;2.38;2.22;;;;;;;;;;5053741;28;20035;-64
2022/05/11 10:58:40;;;;;;;;;;;;;;;;;;5054421;28;20037;-66
2022/05/11 11:01:16;;;;;;;3.65;2.42;;;;;;;;;;5053732;28;19920;-64
2022/05/11 11:04:24;;;;;;;9.57;2.35;;;;;;;;;;5052765;28;20089;-64
2022/05/11 11:07:14;;;;;;;3.70;2.42;;;;;;;;;;5053808;28;20033;-67
2022/05/11 11:10:10;;;;;;;3.95;2.28;;;;;;;;;;5052874;28;20473;-63
2022/05/11 11:12:42;;;;;;;5.05;2.30;;;;;;;;;;5053498;28;20078;-66
2022/05/11 11:15:14;;;;;;;3.38;2.30;;;;;;;;;;5053496;28;20029;-66
2022/05/11 11:17:42;;;;;;;3.58;2.30;;;;;;;;;;5053694;28;20654;-55
2022/05/11 11:20:09;;;;;;;7.30;2.40;;;;;;;;;;5053327;28;20071;-50
2022/05/11 11:23:03;;;;;;;2.60;2.25;;;;;;;;;;5053074;28;20025;-63
2022/05/11 11:25:42;;;;;;;2.60;2.40;;;;;;;;;;5053266;28;20611;-57
2022/05/11 11:28:14;;;;;;;2.58;2.10;;;;;;;;;;5035184;28;20128;-66
2022/05/11 11:30:42;;;;;;;4.45;2.30;;;;;;;;;;5053575;28;20020;-60
2022/05/11 11:33:11;;;;;;;4.93;2.58;;;;;;;;;;5053038;28;20029;-61
2022/05/11 11:35:58;;;;;;;5.40;2.60;;;;;;;;;;5052959;28;20746;-56
2022/05/11 11:38:30;;;;;;;10.52;2.75;;;;;;;;;;5052077;28;20465;-61
2022/05/11 11:41:17;;;;;;;2.83;2.40;;;;;;;;;;5053000;28;20483;-66
2022/05/11 11:43:55;;;;;;;3.22;2.38;;;;;;;;;;5052924;28;20033;-65
2022/05/11 11:46:38;;;;;;;3.33;2.13;;;;;;;;;;5052238;28;20546;-63
2022/05/11 11:49:19;;;;;;;3.08;2.05;;;;;;;;;;5052943;28;20396;-65
2022/05/11 11:51:50;;;;;;;7.55;3.40;;;;;;;;;;5053115;28;20024;-60
2022/05/11 11:54:48;;;;;;;3.72;2.67;;;;;;;;;;5052505;28;20029;-66
2022/05/11 11:57:22;;;;;;;4.13;2.47;;;;;;;;;;5036964;28;20373;-60
2022/05/11 11:59:51;;;;;;;8.52;3.88;;;;;;;;;;5052795;28;20036;-66
2022/05/11 12:02:19;;;;;;;5.70;2.60;;;;;;;;;;5052267;28;20051;-68
2022/05/11 12:04:58;;;;;;;3.05;2.58;;;;;;;;;;5052398;28;20610;-65
2022/05/11 12:16:16;;;;;;;2.28;2.08;;;;;;;;;;5052322;28;20055;-67
2022/05/11 12:18:43;;;;;;;2.50;2.30;;;;;;;;;;5052111;28;20483;-60
2022/05/11 12:21:28;;;;;;;2.40;2.17;;;;;;;;;;5052092;28;20464;-59
2022/05/11 12:23:55;;;;;;;2.90;2.35;;;;;;;;;;5052191;28;20041;-57
2022/05/11 12:26:27;;;;;;;6.30;2.45;;;;;;;;;;5052289;28;20086;-64
2022/05/11 12:29:54;;;;;;;3.72;2.83;;;;;;;;;;5052120;28;20037;-65
2022/05/11 12:31:57;;;;;;;5.57;2.60;;;;;;;;;;5049503;28;20041;-62
2022/05/11 12:34:24;;;;;;;4.50;2.95;;;;;;;;;;5050605;28;20025;-54
2022/05/11 12:36:52;;;;;;;3.65;2.78;;;;;;;;;;5050496;28;20484;-58
2022/05/11 12:39:36;;;;;;;7.32;2.95;;;;;;;;;;5050540;28;20039;-54
2022/05/11 12:42:03;;;;;;;4.65;2.80;;;;;;;;;;5050546;28;20032;-55
2022/05/11 12:44:31;;;;;;;2.60;2.40;;;;;;;;;;5050544;28;20385;-56
2022/05/11 12:46:59;;;;;;;3.10;2.60;;;;;;;;;;5050111;28;20584;-56
2022/05/11 12:49:26;;;;;;;2.35;2.15;;;;;;;;;;5049777;28;20056;-57
2022/05/11 12:51:54;;;;;;;3.13;1.88;;;;;;;;;;5050312;28;20445;-66
2022/05/11 12:54:29;;;;;;;3.83;2.65;;;;;;;;;;5050045;28;20040;-55
2022/05/11 12:57:05;;;;;;;10.02;2.10;;;;;;;;;;5050347;28;20043;-51
2022/05/11 12:59:33;;;;;;;2.50;2.05;;;;;;;;;;5050064;28;20035;-52
2022/05/11 13:02:14;;;;;;;3.15;2.35;;;;;;;;;;5050061;28;20139;-56
2022/05/11 13:04:57;;;;;;;10.13;2.50;;;;;;;;;;5050008;28;20108;-57
2022/05/11 13:07:28;;;;;;;2.13;1.92;;;;;;;;;;5050231;28;20381;-52
2022/05/11 13:09:58;;;;;;;6.03;3.35;;;;;;;;;;5050134;28;20025;-59
2022/05/11 13:12:24;;;;;;;2.90;2.60;;;;;;;;;;5050366;28;20028;-56
2022/05/11 13:14:52;;;;;;;11.57;2.80;;;;;;;;;;5049826;28;20032;-63
2022/05/11 13:17:40;;;;;;;4.45;2.38;;;;;;;;;;5049851;28;20051;-54
2022/05/11 13:20:17;;;;;;;5.32;2.53;;;;;;;;;;5050160;28;20041;-63
2022/05/11 13:22:51;;;;;;;2.92;2.00;;;;;;;;;;5049882;28;20106;-62
2022/05/11 13:25:44;;;;;;;5.20;2.42;;;;;;;;;;5049678;28;20033;-56
2022/05/11 13:28:32;;;;;;;3.25;2.33;;;;;;;;;;5049873;28;20047;-55
2022/05/11 13:31:00;;;;;;;4.15;2.78;;;;;;;;;;5049813;28;20036;-57
2022/05/11 13:33:42;;;;;;;3.47;2.57;;;;;;;;;;5049462;28;20483;-54
2022/05/11 13:36:16;;;;;;;3.85;2.30;;;;;;;;;;5049601;28;20041;-55
2022/05/11 13:39:16;;;;;;;4.32;2.47;;;;;;;;;;5049420;28;20503;-55
2022/05/11 13:42:19;;;;;;;3.78;2.10;;;;;;;;;;5049792;28;20099;-60
2022/05/11 13:44:52;;;;;;;6.50;2.55;;;;;;;;;;5041070;28;20493;-60
2022/05/11 13:50:43;;;;;;;3.70;3.00;;;;;;;;;;5049247;28;20051;-63
2022/05/11 13:53:14;;;;;;;5.70;3.60;;;;;;;;;;5049221;28;20373;-57
2022/05/11 13:55:44;;;;;;;2.33;2.13;;;;;;;;;;5049515;28;20029;-58
2022/05/11 13:58:28;;;;;;;3.97;2.20;;;;;;;;;;5049244;28;20485;-50
2022/05/11 14:00:57;;;;;;;3.55;2.47;;;;;;;;;;5051232;28;20033;-59
2022/05/11 14:03:27;;;;;;;5.80;2.45;;;;;;;;;;5053321;28;20037;-56
2022/05/11 14:05:54;;;;;;;3.28;2.42;;;;;;;;;;5053458;28;20047;-53
2022/05/11 14:08:19;;;;;;;5.25;2.42;;;;;;;;;;5053329;28;20025;-62
2022/05/11 14:10:44;;;;;;;5.25;2.30;;;;;;;;;;5053488;28;20074;-60
2022/05/11 14:13:10;;;;;;;3.30;2.20;;;;;;;;;;5053394;28;20105;-60
2022/05/11 14:15:35;;;;;;;3.00;2.13;;;;;;;;;;5053286;28;20033;-60
2022/05/11 14:18:01;;;;;;;3.97;2.80;;;;;;;;;;5053454;28;20075;-59
2022/05/11 14:20:27;;;;;;;3.28;2.65;;;;;;;;;;5053326;28;20021;-63
2022/05/11 14:22:54;;;;;;;2.00;1.80;;;;;;;;;;5035198;28;20033;-57
2022/05/11 14:25:20;;;;;;;2.25;1.92;;;;;;;;;;5035256;28;20048;-54
2022/05/11 14:27:46;;;;;;;3.33;2.00;;;;;;;;;;5053132;28;20029;-54
2022/05/11 14:30:12;;;;;;;1.95;1.77;;;;;;;;;;5053101;28;20432;-50
2022/05/11 14:32:44;;;;;;;3.97;2.38;;;;;;;;;;5052956;28;20468;-61
2022/05/11 14:35:14;;;;;;;9.10;2.65;;;;;;;;;;5053225;28;20028;-53
2022/05/11 14:37:41;;;;;;;3.83;2.75;;;;;;;;;;5052926;28;20021;-61
2022/05/11 14:40:19;;;;;;;2.63;1.85;;;;;;;;;;5052916;28;20029;-67
2022/05/11 14:42:46;;;;;;;4.25;2.40;;;;;;;;;;5052968;28;20025;-55
2022/05/11 14:45:13;;;;;;;2.95;2.30;;;;;;;;;;5052666;28;20029;-57
2022/05/11 14:47:43;;;;;;;3.78;2.25;;;;;;;;;;5052717;28;20083;-55
2022/05/11 14:50:17;;;;;;;2.40;2.20;;;;;;;;;;5053139;28;20029;-62
2022/05/11 14:52:47;;;;;;;4.03;2.47;;;;;;;;;;5035072;28;20029;-64
2022/05/11 14:55:17;;;;;;;5.95;3.88;;;;;;;;;;5052553;28;20128;-50
2022/05/11 15:03:23;;;;;;;2.60;2.40;;;;;;;;;;5014799;28;20428;-60
2022/05/11 15:05:50;;;;;;;3.60;2.00;;;;;;;;;;5052107;28;20055;-56
2022/05/11 15:08:16;;;;;;;3.10;2.58;;;;;;;;;;5052276;28;20039;-58
2022/05/11 15:10:42;;;;;;;8.82;2.40;;;;;;;;;;5052331;28;20041;-58
2022/05/11 15:15:53;;;;;;;5.18;2.55;;;;;;;;;;5052285;28;20470;-58
2022/05/11 15:18:19;;;;;;;9.35;3.05;;;;;;;;;;5052314;28;20027;-62
2022/05/11 15:20:46;;;;;;;4.03;2.40;;;;;;;;;;5052235;28;20021;-62
2022/05/11 15:23:13;;;;;;;4.45;3.05;;;;;;;;;;5051885;28;20132;-64
2022/05/11 15:25:39;;;;;;;4.30;2.47;;;;;;;;;;5052100;28;20381;-65
2022/05/11 15:28:04;;;;;;;4.05;2.70;;;;;;;;;;5053470;28;20035;-63
2022/05/11 15:30:33;;;;;;;3.85;2.80;;;;;;;;;;5053121;28;20087;-62
2022/05/11 15:33:00;;;;;;;3.77;2.70;;;;;;;;;;5053418;28;20457;-58
2022/05/11 15:35:27;;;;;;;3.10;2.22;;;;;;;;;;5053107;28;20050;-59
2022/05/11 15:37:54;;;;;;;2.40;2.20;;;;;;;;;;5053170;28;20431;-60
2022/05/11 15:40:25;;;;;;;4.40;2.30;;;;;;;;;;5053380;28;20096;-49
2022/05/11 15:42:53;;;;;;;3.53;2.47;;;;;;;;;;5052870;28;20025;-54
2022/05/11 15:45:20;;;;;;;5.60;2.40;;;;;;;;;;5052710;28;20481;-57
2022/05/11 15:47:46;;;;;;;4.65;2.50;;;;;;;;;;5052986;28;20484;-63
2022/05/11 15:50:12;;;;;;;3.25;2.20;;;;;;;;;;5053065;28;20023;-66
2022/05/11 15:52:48;;;;;;;5.20;2.33;;;;;;;;;;5052982;28;20025;-64
2022/05/11 15:55:16;;;;;;;5.63;2.53;;;;;;;;;;5052996;28;20035;-67